sensor_id;sensor_type;location;lat;lon;timestamp;temperature;humidity
79140;HTU21D;68546;59.142;37.948;2023-05-24T00:02:13;18.89;62.03
79140;HTU21D;68546;59.142;37.948;2023-05-24T00:04:41;18.91;62.03
79140;HTU21D;68546;59.142;37.948;2023-05-24T00:07:07;18.91;62.10
79140;HTU21D;68546;59.142;37.948;2023-05-24T00:09:33;18.89;62.26
79140;HTU21D;68546;59.142;37.948;2023-05-24T00:11:59;18.92;62.27
79140;HTU21D;68546;59.142;37.948;2023-05-24T00:14:26;18.89;62.39
79140;HTU21D;68546;59.142;37.948;2023-05-24T00:16:52;18.91;62.44
79140;HTU21D;68546;59.142;37.948;2023-05-24T00:19:18;18.89;62.47
79140;HTU21D;68546;59.142;37.948;2023-05-24T00:21:47;18.87;62.44
79140;HTU21D;68546;59.142;37.948;2023-05-24T00:24:14;18.88;62.35
79140;HTU21D;68546;59.142;37.948;2023-05-24T00:26:42;18.86;62.19
79140;HTU21D;68546;59.142;37.948;2023-05-24T00:29:08;18.85;62.22
79140;HTU21D;68546;59.142;37.948;2023-05-24T00:31:34;18.85;62.21
79140;HTU21D;68546;59.142;37.948;2023-05-24T00:34:02;18.84;62.19
79140;HTU21D;68546;59.142;37.948;2023-05-24T00:36:28;18.84;62.12
79140;HTU21D;68546;59.142;37.948;2023-05-24T00:38:54;18.84;62.23
79140;HTU21D;68546;59.142;37.948;2023-05-24T00:41:21;18.83;62.22
79140;HTU21D;68546;59.142;37.948;2023-05-24T00:43:47;18.82;62.44
79140;HTU21D;68546;59.142;37.948;2023-05-24T00:46:16;18.81;62.47
79140;HTU21D;68546;59.142;37.948;2023-05-24T00:48:43;18.80;62.39
79140;HTU21D;68546;59.142;37.948;2023-05-24T00:51:11;18.78;62.42
79140;HTU21D;68546;59.142;37.948;2023-05-24T00:53:39;18.76;62.44
79140;HTU21D;68546;59.142;37.948;2023-05-24T00:56:07;18.76;62.43
79140;HTU21D;68546;59.142;37.948;2023-05-24T00:58:33;18.72;62.41
79140;HTU21D;68546;59.142;37.948;2023-05-24T01:01:01;18.72;62.49
79140;HTU21D;68546;59.142;37.948;2023-05-24T01:03:29;18.70;62.60
79140;HTU21D;68546;59.142;37.948;2023-05-24T01:05:57;18.68;62.71
79140;HTU21D;68546;59.142;37.948;2023-05-24T01:08:34;18.65;62.75
79140;HTU21D;68546;59.142;37.948;2023-05-24T01:11:12;18.63;62.76
79140;HTU21D;68546;59.142;37.948;2023-05-24T01:13:51;18.59;62.97
79140;HTU21D;68546;59.142;37.948;2023-05-24T01:16:24;18.57;63.15
79140;HTU21D;68546;59.142;37.948;2023-05-24T01:18:55;18.53;63.18
79140;HTU21D;68546;59.142;37.948;2023-05-24T01:27:06;18.47;63.30
79140;HTU21D;68546;59.142;37.948;2023-05-24T01:29:35;18.42;63.63
79140;HTU21D;68546;59.142;37.948;2023-05-24T01:32:02;18.40;63.88
79140;HTU21D;68546;59.142;37.948;2023-05-24T01:34:28;18.40;64.08
79140;HTU21D;68546;59.142;37.948;2023-05-24T01:36:54;18.37;64.16
79140;HTU21D;68546;59.142;37.948;2023-05-24T01:39:25;18.36;64.36
79140;HTU21D;68546;59.142;37.948;2023-05-24T01:42:02;18.36;64.56
79140;HTU21D;68546;59.142;37.948;2023-05-24T01:44:42;18.35;64.63
79140;HTU21D;68546;59.142;37.948;2023-05-24T01:49:53;18.32;64.79
79140;HTU21D;68546;59.142;37.948;2023-05-24T01:52:21;18.29;64.89
79140;HTU21D;68546;59.142;37.948;2023-05-24T01:54:51;18.29;64.96
79140;HTU21D;68546;59.142;37.948;2023-05-24T01:57:19;18.27;65.01
79140;HTU21D;68546;59.142;37.948;2023-05-24T01:59:49;18.26;65.07
79140;HTU21D;68546;59.142;37.948;2023-05-24T02:02:16;18.28;65.15
79140;HTU21D;68546;59.142;37.948;2023-05-24T02:04:43;18.30;65.30
79140;HTU21D;68546;59.142;37.948;2023-05-24T02:07:09;18.34;65.37
79140;HTU21D;68546;59.142;37.948;2023-05-24T02:09:36;18.38;65.47
79140;HTU21D;68546;59.142;37.948;2023-05-24T02:12:03;18.43;65.50
79140;HTU21D;68546;59.142;37.948;2023-05-24T02:14:30;18.50;65.49
79140;HTU21D;68546;59.142;37.948;2023-05-24T02:16:56;18.55;65.42
79140;HTU21D;68546;59.142;37.948;2023-05-24T02:19:24;18.59;65.34
79140;HTU21D;68546;59.142;37.948;2023-05-24T02:21:50;18.63;65.25
79140;HTU21D;68546;59.142;37.948;2023-05-24T02:24:17;18.71;65.27
79140;HTU21D;68546;59.142;37.948;2023-05-24T02:26:44;18.78;65.33
79140;HTU21D;68546;59.142;37.948;2023-05-24T02:29:10;18.88;65.32
79140;HTU21D;68546;59.142;37.948;2023-05-24T02:31:36;19.00;65.34
79140;HTU21D;68546;59.142;37.948;2023-05-24T02:34:03;19.13;65.34
79140;HTU21D;68546;59.142;37.948;2023-05-24T02:36:29;19.25;65.20
79140;HTU21D;68546;59.142;37.948;2023-05-24T02:38:57;19.38;64.80
79140;HTU21D;68546;59.142;37.948;2023-05-24T02:41:23;19.45;64.49
79140;HTU21D;68546;59.142;37.948;2023-05-24T02:43:51;19.52;64.32
79140;HTU21D;68546;59.142;37.948;2023-05-24T02:46:17;19.55;63.79
79140;HTU21D;68546;59.142;37.948;2023-05-24T02:48:44;19.58;63.37
79140;HTU21D;68546;59.142;37.948;2023-05-24T02:51:10;19.60;63.11
79140;HTU21D;68546;59.142;37.948;2023-05-24T02:53:36;19.60;63.09
79140;HTU21D;68546;59.142;37.948;2023-05-24T02:56:03;19.61;62.89
79140;HTU21D;68546;59.142;37.948;2023-05-24T02:58:31;19.62;62.67
79140;HTU21D;68546;59.142;37.948;2023-05-24T03:00:57;19.61;62.55
79140;HTU21D;68546;59.142;37.948;2023-05-24T03:03:23;19.60;62.49
79140;HTU21D;68546;59.142;37.948;2023-05-24T03:05:50;19.57;62.44
79140;HTU21D;68546;59.142;37.948;2023-05-24T03:08:16;19.55;62.34
79140;HTU21D;68546;59.142;37.948;2023-05-24T03:10:42;19.54;62.28
79140;HTU21D;68546;59.142;37.948;2023-05-24T03:13:08;19.51;62.21
79140;HTU21D;68546;59.142;37.948;2023-05-24T03:15:37;19.48;62.31
79140;HTU21D;68546;59.142;37.948;2023-05-24T03:18:03;19.48;62.37
79140;HTU21D;68546;59.142;37.948;2023-05-24T03:20:30;19.48;62.44
79140;HTU21D;68546;59.142;37.948;2023-05-24T03:22:57;19.52;62.36
79140;HTU21D;68546;59.142;37.948;2023-05-24T03:25:23;19.57;62.22
79140;HTU21D;68546;59.142;37.948;2023-05-24T03:27:49;19.61;62.18
79140;HTU21D;68546;59.142;37.948;2023-05-24T03:30:17;19.65;62.04
79140;HTU21D;68546;59.142;37.948;2023-05-24T03:32:51;19.69;61.97
79140;HTU21D;68546;59.142;37.948;2023-05-24T03:35:17;19.71;61.84
79140;HTU21D;68546;59.142;37.948;2023-05-24T03:37:43;19.75;61.79
79140;HTU21D;68546;59.142;37.948;2023-05-24T03:40:10;19.80;61.72
79140;HTU21D;68546;59.142;37.948;2023-05-24T03:43:06;19.83;61.64
79140;HTU21D;68546;59.142;37.948;2023-05-24T03:45:46;19.88;61.50
79140;HTU21D;68546;59.142;37.948;2023-05-24T03:48:12;19.89;61.37
79140;HTU21D;68546;59.142;37.948;2023-05-24T03:50:39;19.92;61.10
79140;HTU21D;68546;59.142;37.948;2023-05-24T03:53:05;19.91;60.98
79140;HTU21D;68546;59.142;37.948;2023-05-24T03:55:31;19.91;60.83
79140;HTU21D;68546;59.142;37.948;2023-05-24T03:57:58;19.89;60.83
79140;HTU21D;68546;59.142;37.948;2023-05-24T04:00:24;19.90;60.86
79140;HTU21D;68546;59.142;37.948;2023-05-24T04:02:50;19.90;60.76
79140;HTU21D;68546;59.142;37.948;2023-05-24T04:05:16;19.90;60.75
79140;HTU21D;68546;59.142;37.948;2023-05-24T04:07:43;19.90;60.79
79140;HTU21D;68546;59.142;37.948;2023-05-24T04:10:11;19.91;60.81
79140;HTU21D;68546;59.142;37.948;2023-05-24T04:12:39;19.91;60.73
79140;HTU21D;68546;59.142;37.948;2023-05-24T04:15:06;19.91;60.65
79140;HTU21D;68546;59.142;37.948;2023-05-24T04:17:33;19.90;60.65
79140;HTU21D;68546;59.142;37.948;2023-05-24T04:20:00;19.90;60.65
79140;HTU21D;68546;59.142;37.948;2023-05-24T04:22:29;19.92;60.72
79140;HTU21D;68546;59.142;37.948;2023-05-24T04:24:56;19.92;60.70
79140;HTU21D;68546;59.142;37.948;2023-05-24T04:27:22;19.95;60.80
79140;HTU21D;68546;59.142;37.948;2023-05-24T04:29:51;19.99;60.76
79140;HTU21D;68546;59.142;37.948;2023-05-24T04:32:18;20.02;60.65
79140;HTU21D;68546;59.142;37.948;2023-05-24T04:34:45;20.05;60.55
79140;HTU21D;68546;59.142;37.948;2023-05-24T04:37:11;20.09;60.45
79140;HTU21D;68546;59.142;37.948;2023-05-24T04:39:44;20.13;60.40
79140;HTU21D;68546;59.142;37.948;2023-05-24T04:42:11;20.17;60.25
79140;HTU21D;68546;59.142;37.948;2023-05-24T04:44:41;20.20;60.34
79140;HTU21D;68546;59.142;37.948;2023-05-24T04:47:07;20.27;60.47
79140;HTU21D;68546;59.142;37.948;2023-05-24T04:49:34;20.32;60.59
79140;HTU21D;68546;59.142;37.948;2023-05-24T04:52:00;20.42;60.51
79140;HTU21D;68546;59.142;37.948;2023-05-24T04:54:27;20.48;60.47
79140;HTU21D;68546;59.142;37.948;2023-05-24T04:56:53;20.59;60.42
79140;HTU21D;68546;59.142;37.948;2023-05-24T04:59:19;20.72;60.23
79140;HTU21D;68546;59.142;37.948;2023-05-24T05:01:46;20.85;59.84
79140;HTU21D;68546;59.142;37.948;2023-05-24T05:04:12;20.98;59.70
79140;HTU21D;68546;59.142;37.948;2023-05-24T05:06:38;21.09;59.51
79140;HTU21D;68546;59.142;37.948;2023-05-24T05:09:06;21.25;59.24
79140;HTU21D;68546;59.142;37.948;2023-05-24T05:11:38;21.40;58.86
79140;HTU21D;68546;59.142;37.948;2023-05-24T05:14:05;21.53;58.41
79140;HTU21D;68546;59.142;37.948;2023-05-24T05:16:31;21.65;58.05
79140;HTU21D;68546;59.142;37.948;2023-05-24T05:18:57;21.73;57.71
79140;HTU21D;68546;59.142;37.948;2023-05-24T05:21:23;21.82;57.35
79140;HTU21D;68546;59.142;37.948;2023-05-24T05:23:50;21.90;57.11
79140;HTU21D;68546;59.142;37.948;2023-05-24T05:26:16;21.98;56.73
79140;HTU21D;68546;59.142;37.948;2023-05-24T05:28:42;22.07;56.27
79140;HTU21D;68546;59.142;37.948;2023-05-24T05:31:09;22.14;55.94
79140;HTU21D;68546;59.142;37.948;2023-05-24T05:33:35;22.22;55.74
79140;HTU21D;68546;59.142;37.948;2023-05-24T05:36:01;22.28;55.59
79140;HTU21D;68546;59.142;37.948;2023-05-24T05:38:28;22.35;54.48
79140;HTU21D;68546;59.142;37.948;2023-05-24T05:40:54;22.42;53.81
79140;HTU21D;68546;59.142;37.948;2023-05-24T05:43:20;22.48;53.47
79140;HTU21D;68546;59.142;37.948;2023-05-24T05:45:46;22.54;53.00
79140;HTU21D;68546;59.142;37.948;2023-05-24T05:48:12;22.58;52.53
79140;HTU21D;68546;59.142;37.948;2023-05-24T05:50:39;22.63;52.23
79140;HTU21D;68546;59.142;37.948;2023-05-24T05:53:05;22.69;51.92
79140;HTU21D;68546;59.142;37.948;2023-05-24T05:55:31;22.77;51.74
79140;HTU21D;68546;59.142;37.948;2023-05-24T05:57:57;22.84;51.59
79140;HTU21D;68546;59.142;37.948;2023-05-24T06:00:24;22.94;51.46
79140;HTU21D;68546;59.142;37.948;2023-05-24T06:02:50;23.06;51.13
79140;HTU21D;68546;59.142;37.948;2023-05-24T06:05:17;23.16;50.72
79140;HTU21D;68546;59.142;37.948;2023-05-24T06:07:44;23.27;50.49
79140;HTU21D;68546;59.142;37.948;2023-05-24T06:10:11;23.37;50.11
79140;HTU21D;68546;59.142;37.948;2023-05-24T06:12:37;23.44;49.44
79140;HTU21D;68546;59.142;37.948;2023-05-24T06:15:06;23.51;48.99
79140;HTU21D;68546;59.142;37.948;2023-05-24T06:17:33;23.55;48.55
79140;HTU21D;68546;59.142;37.948;2023-05-24T06:20:00;23.59;48.35
79140;HTU21D;68546;59.142;37.948;2023-05-24T06:22:26;23.64;48.37
79140;HTU21D;68546;59.142;37.948;2023-05-24T06:24:55;23.68;48.02
79140;HTU21D;68546;59.142;37.948;2023-05-24T06:27:21;23.74;47.83
79140;HTU21D;68546;59.142;37.948;2023-05-24T06:29:48;23.83;47.39
79140;HTU21D;68546;59.142;37.948;2023-05-24T06:32:14;23.94;47.31
79140;HTU21D;68546;59.142;37.948;2023-05-24T06:34:41;24.03;46.91
79140;HTU21D;68546;59.142;37.948;2023-05-24T06:37:08;24.16;46.60
79140;HTU21D;68546;59.142;37.948;2023-05-24T06:39:36;24.25;46.28
79140;HTU21D;68546;59.142;37.948;2023-05-24T06:42:02;24.31;45.96
79140;HTU21D;68546;59.142;37.948;2023-05-24T06:44:35;24.38;45.74
79140;HTU21D;68546;59.142;37.948;2023-05-24T06:47:02;24.43;45.80
79140;HTU21D;68546;59.142;37.948;2023-05-24T06:49:29;24.49;45.57
79140;HTU21D;68546;59.142;37.948;2023-05-24T06:51:56;24.55;45.51
79140;HTU21D;68546;59.142;37.948;2023-05-24T06:54:25;24.62;45.52
79140;HTU21D;68546;59.142;37.948;2023-05-24T06:56:51;24.71;45.52
79140;HTU21D;68546;59.142;37.948;2023-05-24T06:59:19;24.79;45.51
79140;HTU21D;68546;59.142;37.948;2023-05-24T07:01:45;24.91;45.23
79140;HTU21D;68546;59.142;37.948;2023-05-24T07:04:12;24.99;45.12
79140;HTU21D;68546;59.142;37.948;2023-05-24T07:06:38;25.08;44.94
79140;HTU21D;68546;59.142;37.948;2023-05-24T07:09:05;25.17;44.58
79140;HTU21D;68546;59.142;37.948;2023-05-24T07:11:31;25.27;44.54
79140;HTU21D;68546;59.142;37.948;2023-05-24T07:13:57;25.36;44.14
79140;HTU21D;68546;59.142;37.948;2023-05-24T07:16:23;25.46;44.16
79140;HTU21D;68546;59.142;37.948;2023-05-24T07:18:50;25.57;43.83
79140;HTU21D;68546;59.142;37.948;2023-05-24T07:21:16;25.66;43.58
79140;HTU21D;68546;59.142;37.948;2023-05-24T07:23:43;25.75;43.33
79140;HTU21D;68546;59.142;37.948;2023-05-24T07:26:09;25.82;43.22
79140;HTU21D;68546;59.142;37.948;2023-05-24T07:28:35;25.90;42.93
79140;HTU21D;68546;59.142;37.948;2023-05-24T07:31:03;25.98;42.43
79140;HTU21D;68546;59.142;37.948;2023-05-24T07:33:30;26.06;41.74
79140;HTU21D;68546;59.142;37.948;2023-05-24T07:35:57;26.08;41.26
79140;HTU21D;68546;59.142;37.948;2023-05-24T07:38:23;26.09;41.02
79140;HTU21D;68546;59.142;37.948;2023-05-24T07:40:50;26.11;40.84
79140;HTU21D;68546;59.142;37.948;2023-05-24T07:43:17;26.13;40.80
79140;HTU21D;68546;59.142;37.948;2023-05-24T07:45:44;26.13;41.07
79140;HTU21D;68546;59.142;37.948;2023-05-24T07:48:11;26.13;41.23
79140;HTU21D;68546;59.142;37.948;2023-05-24T07:50:38;26.09;41.26
79140;HTU21D;68546;59.142;37.948;2023-05-24T07:53:10;26.04;41.53
79140;HTU21D;68546;59.142;37.948;2023-05-24T07:55:41;25.98;41.39
79140;HTU21D;68546;59.142;37.948;2023-05-24T07:58:12;25.92;41.32
79140;HTU21D;68546;59.142;37.948;2023-05-24T08:00:41;25.89;41.47
79140;HTU21D;68546;59.142;37.948;2023-05-24T08:03:13;25.89;41.71
79140;HTU21D;68546;59.142;37.948;2023-05-24T08:05:46;25.91;41.71
79140;HTU21D;68546;59.142;37.948;2023-05-24T08:08:12;25.90;41.88
79140;HTU21D;68546;59.142;37.948;2023-05-24T08:10:38;25.91;41.93
79140;HTU21D;68546;59.142;37.948;2023-05-24T08:13:05;25.91;42.00
79140;HTU21D;68546;59.142;37.948;2023-05-24T08:15:31;25.93;42.25
79140;HTU21D;68546;59.142;37.948;2023-05-24T08:17:57;25.96;42.29
79140;HTU21D;68546;59.142;37.948;2023-05-24T08:20:24;25.99;42.23
79140;HTU21D;68546;59.142;37.948;2023-05-24T08:22:50;25.99;41.76
79140;HTU21D;68546;59.142;37.948;2023-05-24T08:25:17;25.96;41.65
79140;HTU21D;68546;59.142;37.948;2023-05-24T08:27:44;25.93;41.62
79140;HTU21D;68546;59.142;37.948;2023-05-24T08:30:11;25.88;41.68
79140;HTU21D;68546;59.142;37.948;2023-05-24T08:32:40;25.82;41.71
79140;HTU21D;68546;59.142;37.948;2023-05-24T08:35:06;25.76;41.50
79140;HTU21D;68546;59.142;37.948;2023-05-24T08:37:33;25.71;41.55
79140;HTU21D;68546;59.142;37.948;2023-05-24T08:40:00;25.63;41.61
79140;HTU21D;68546;59.142;37.948;2023-05-24T08:42:28;25.56;41.52
79140;HTU21D;68546;59.142;37.948;2023-05-24T08:45:08;25.46;41.58
79140;HTU21D;68546;59.142;37.948;2023-05-24T08:47:36;25.38;41.58
79140;HTU21D;68546;59.142;37.948;2023-05-24T08:50:04;25.33;41.81
79140;HTU21D;68546;59.142;37.948;2023-05-24T08:52:31;25.31;41.83
79140;HTU21D;68546;59.142;37.948;2023-05-24T08:54:58;25.30;42.02
79140;HTU21D;68546;59.142;37.948;2023-05-24T08:57:26;25.32;42.07
79140;HTU21D;68546;59.142;37.948;2023-05-24T08:59:53;25.37;42.03
79140;HTU21D;68546;59.142;37.948;2023-05-24T09:02:23;25.43;41.89
79140;HTU21D;68546;59.142;37.948;2023-05-24T09:04:51;25.46;41.88
79140;HTU21D;68546;59.142;37.948;2023-05-24T09:07:21;25.49;41.77
79140;HTU21D;68546;59.142;37.948;2023-05-24T09:10:03;25.51;41.84
79140;HTU21D;68546;59.142;37.948;2023-05-24T09:12:32;25.51;41.82
79140;HTU21D;68546;59.142;37.948;2023-05-24T09:14:59;25.53;41.82
79140;HTU21D;68546;59.142;37.948;2023-05-24T09:17:30;25.56;41.89
79140;HTU21D;68546;59.142;37.948;2023-05-24T09:19:57;25.60;42.07
79140;HTU21D;68546;59.142;37.948;2023-05-24T09:22:27;25.63;42.14
79140;HTU21D;68546;59.142;37.948;2023-05-24T09:25:03;25.65;42.03
79140;HTU21D;68546;59.142;37.948;2023-05-24T09:27:32;25.67;41.89
79140;HTU21D;68546;59.142;37.948;2023-05-24T09:30:00;25.68;41.87
79140;HTU21D;68546;59.142;37.948;2023-05-24T09:32:26;25.66;41.90
79140;HTU21D;68546;59.142;37.948;2023-05-24T09:34:57;25.68;42.06
79140;HTU21D;68546;59.142;37.948;2023-05-24T09:37:26;25.69;42.18
79140;HTU21D;68546;59.142;37.948;2023-05-24T09:39:55;25.74;42.18
79140;HTU21D;68546;59.142;37.948;2023-05-24T09:42:25;25.75;42.05
79140;HTU21D;68546;59.142;37.948;2023-05-24T09:45:00;25.74;42.05
79140;HTU21D;68546;59.142;37.948;2023-05-24T09:47:28;25.68;42.14
79140;HTU21D;68546;59.142;37.948;2023-05-24T09:49:55;25.64;42.32
79140;HTU21D;68546;59.142;37.948;2023-05-24T09:52:22;25.56;42.49
79140;HTU21D;68546;59.142;37.948;2023-05-24T09:54:48;25.47;42.48
79140;HTU21D;68546;59.142;37.948;2023-05-24T09:57:15;25.40;42.75
79140;HTU21D;68546;59.142;37.948;2023-05-24T09:59:42;25.33;42.99
79140;HTU21D;68546;59.142;37.948;2023-05-24T10:02:10;25.28;43.24
79140;HTU21D;68546;59.142;37.948;2023-05-24T10:04:40;25.22;43.39
79140;HTU21D;68546;59.142;37.948;2023-05-24T10:07:07;25.17;43.64
79140;HTU21D;68546;59.142;37.948;2023-05-24T10:09:34;25.14;43.83
79140;HTU21D;68546;59.142;37.948;2023-05-24T10:12:03;25.07;44.10
79140;HTU21D;68546;59.142;37.948;2023-05-24T10:14:39;25.05;44.22
79140;HTU21D;68546;59.142;37.948;2023-05-24T10:17:06;24.98;44.45
79140;HTU21D;68546;59.142;37.948;2023-05-24T10:19:34;24.95;44.55
79140;HTU21D;68546;59.142;37.948;2023-05-24T10:22:05;24.91;44.72
79140;HTU21D;68546;59.142;37.948;2023-05-24T10:24:37;24.88;44.98
79140;HTU21D;68546;59.142;37.948;2023-05-24T10:27:08;24.85;45.19
79140;HTU21D;68546;59.142;37.948;2023-05-24T10:32:17;24.79;45.57
79140;HTU21D;68546;59.142;37.948;2023-05-24T10:34:46;24.76;45.78
79140;HTU21D;68546;59.142;37.948;2023-05-24T10:37:13;24.74;46.03
79140;HTU21D;68546;59.142;37.948;2023-05-24T10:39:41;24.74;46.19
79140;HTU21D;68546;59.142;37.948;2023-05-24T10:42:07;24.72;46.43
79140;HTU21D;68546;59.142;37.948;2023-05-24T10:44:34;24.69;46.44
79140;HTU21D;68546;59.142;37.948;2023-05-24T10:47:11;24.68;46.39
79140;HTU21D;68546;59.142;37.948;2023-05-24T10:49:49;24.65;46.64
79140;HTU21D;68546;59.142;37.948;2023-05-24T10:52:19;24.63;46.72
79140;HTU21D;68546;59.142;37.948;2023-05-24T10:55:04;24.65;46.79
79140;HTU21D;68546;59.142;37.948;2023-05-24T10:57:37;24.68;47.00
79140;HTU21D;68546;59.142;37.948;2023-05-24T11:00:36;24.73;47.00
79140;HTU21D;68546;59.142;37.948;2023-05-24T11:03:07;24.75;47.15
79140;HTU21D;68546;59.142;37.948;2023-05-24T11:08:33;24.80;47.17
79140;HTU21D;68546;59.142;37.948;2023-05-24T11:11:08;24.79;47.63
79140;HTU21D;68546;59.142;37.948;2023-05-24T11:13:37;24.80;47.99
79140;HTU21D;68546;59.142;37.948;2023-05-24T11:16:05;24.79;48.11
79140;HTU21D;68546;59.142;37.948;2023-05-24T11:18:32;24.79;48.26
79140;HTU21D;68546;59.142;37.948;2023-05-24T11:21:04;24.76;48.18
79140;HTU21D;68546;59.142;37.948;2023-05-24T11:23:31;24.72;48.14
79140;HTU21D;68546;59.142;37.948;2023-05-24T11:25:58;24.68;48.56
79140;HTU21D;68546;59.142;37.948;2023-05-24T11:28:25;24.63;49.21
79140;HTU21D;68546;59.142;37.948;2023-05-24T11:30:53;24.60;49.08
79140;HTU21D;68546;59.142;37.948;2023-05-24T11:33:21;24.56;49.10
79140;HTU21D;68546;59.142;37.948;2023-05-24T11:35:53;24.54;49.26
79140;HTU21D;68546;59.142;37.948;2023-05-24T11:38:20;24.50;49.44
79140;HTU21D;68546;59.142;37.948;2023-05-24T11:40:48;24.46;49.80
79140;HTU21D;68546;59.142;37.948;2023-05-24T11:43:17;24.42;50.27
79140;HTU21D;68546;59.142;37.948;2023-05-24T11:45:47;24.39;50.54
79140;HTU21D;68546;59.142;37.948;2023-05-24T11:48:15;24.34;50.49
79140;HTU21D;68546;59.142;37.948;2023-05-24T11:50:43;24.31;50.57
79140;HTU21D;68546;59.142;37.948;2023-05-24T11:53:12;24.27;50.70
79140;HTU21D;68546;59.142;37.948;2023-05-24T11:55:39;24.25;50.84
79140;HTU21D;68546;59.142;37.948;2023-05-24T11:58:48;24.21;50.92
79140;HTU21D;68546;59.142;37.948;2023-05-24T12:01:26;24.19;50.78
79140;HTU21D;68546;59.142;37.948;2023-05-24T12:03:53;24.19;50.97
79140;HTU21D;68546;59.142;37.948;2023-05-24T12:06:20;24.24;51.17
79140;HTU21D;68546;59.142;37.948;2023-05-24T12:08:49;24.29;51.22
79140;HTU21D;68546;59.142;37.948;2023-05-24T12:11:15;24.35;51.25
79140;HTU21D;68546;59.142;37.948;2023-05-24T12:13:42;24.41;51.17
79140;HTU21D;68546;59.142;37.948;2023-05-24T12:16:10;24.44;51.04
79140;HTU21D;68546;59.142;37.948;2023-05-24T12:18:38;24.48;50.89
79140;HTU21D;68546;59.142;37.948;2023-05-24T12:21:09;24.49;50.66
79140;HTU21D;68546;59.142;37.948;2023-05-24T12:23:37;24.53;50.60
79140;HTU21D;68546;59.142;37.948;2023-05-24T12:26:04;24.53;50.71
79140;HTU21D;68546;59.142;37.948;2023-05-24T12:28:36;24.56;50.56
79140;HTU21D;68546;59.142;37.948;2023-05-24T12:31:04;24.55;50.24
79140;HTU21D;68546;59.142;37.948;2023-05-24T12:33:32;24.56;50.20
79140;HTU21D;68546;59.142;37.948;2023-05-24T12:35:59;24.57;50.25
79140;HTU21D;68546;59.142;37.948;2023-05-24T12:38:26;24.58;50.32
79140;HTU21D;68546;59.142;37.948;2023-05-24T12:40:53;24.60;50.23
79140;HTU21D;68546;59.142;37.948;2023-05-24T12:43:20;24.63;50.23
79140;HTU21D;68546;59.142;37.948;2023-05-24T12:45:47;24.66;50.18
79140;HTU21D;68546;59.142;37.948;2023-05-24T12:48:16;24.73;50.09
79140;HTU21D;68546;59.142;37.948;2023-05-24T12:50:44;24.77;49.84
79140;HTU21D;68546;59.142;37.948;2023-05-24T12:53:11;24.82;49.58
79140;HTU21D;68546;59.142;37.948;2023-05-24T12:55:39;24.88;49.11
79140;HTU21D;68546;59.142;37.948;2023-05-24T12:58:05;24.90;48.88
79140;HTU21D;68546;59.142;37.948;2023-05-24T13:00:34;24.95;48.82
79140;HTU21D;68546;59.142;37.948;2023-05-24T13:03:01;25.00;48.61
79140;HTU21D;68546;59.142;37.948;2023-05-24T13:05:28;25.03;48.35
79140;HTU21D;68546;59.142;37.948;2023-05-24T13:07:55;25.07;48.43
79140;HTU21D;68546;59.142;37.948;2023-05-24T13:10:23;25.12;48.10
79140;HTU21D;68546;59.142;37.948;2023-05-24T13:12:49;25.16;47.83
79140;HTU21D;68546;59.142;37.948;2023-05-24T13:15:16;25.17;47.56
79140;HTU21D;68546;59.142;37.948;2023-05-24T13:17:47;25.22;47.43
79140;HTU21D;68546;59.142;37.948;2023-05-24T13:20:13;25.22;47.18
79140;HTU21D;68546;59.142;37.948;2023-05-24T13:22:42;25.21;47.13
79140;HTU21D;68546;59.142;37.948;2023-05-24T13:25:09;25.23;46.93
79140;HTU21D;68546;59.142;37.948;2023-05-24T13:27:35;25.21;46.96
79140;HTU21D;68546;59.142;37.948;2023-05-24T13:30:02;25.21;46.91
79140;HTU21D;68546;59.142;37.948;2023-05-24T13:32:29;25.17;46.99
79140;HTU21D;68546;59.142;37.948;2023-05-24T13:34:56;25.15;46.89
79140;HTU21D;68546;59.142;37.948;2023-05-24T13:37:24;25.12;46.89
79140;HTU21D;68546;59.142;37.948;2023-05-24T13:39:50;25.05;46.89
79140;HTU21D;68546;59.142;37.948;2023-05-24T13:42:17;25.01;46.96
79140;HTU21D;68546;59.142;37.948;2023-05-24T13:44:43;24.97;46.86
79140;HTU21D;68546;59.142;37.948;2023-05-24T13:47:09;24.91;46.76
79140;HTU21D;68546;59.142;37.948;2023-05-24T13:49:36;24.87;46.71
79140;HTU21D;68546;59.142;37.948;2023-05-24T13:52:03;24.85;46.59
79140;HTU21D;68546;59.142;37.948;2023-05-24T13:54:29;24.82;46.21
79140;HTU21D;68546;59.142;37.948;2023-05-24T13:56:57;24.75;45.88
79140;HTU21D;68546;59.142;37.948;2023-05-24T13:59:26;24.71;45.66
79140;HTU21D;68546;59.142;37.948;2023-05-24T14:01:53;24.64;45.24
79140;HTU21D;68546;59.142;37.948;2023-05-24T14:04:19;24.60;45.09
79140;HTU21D;68546;59.142;37.948;2023-05-24T14:06:46;24.56;45.14
79140;HTU21D;68546;59.142;37.948;2023-05-24T14:09:13;24.50;45.27
79140;HTU21D;68546;59.142;37.948;2023-05-24T14:11:40;24.47;45.32
79140;HTU21D;68546;59.142;37.948;2023-05-24T14:14:06;24.47;45.48
79140;HTU21D;68546;59.142;37.948;2023-05-24T14:16:33;24.48;45.61
79140;HTU21D;68546;59.142;37.948;2023-05-24T14:19:00;24.47;45.70
79140;HTU21D;68546;59.142;37.948;2023-05-24T14:21:28;24.47;45.67
79140;HTU21D;68546;59.142;37.948;2023-05-24T14:23:58;24.48;45.73
79140;HTU21D;68546;59.142;37.948;2023-05-24T14:26:24;24.48;45.91
79140;HTU21D;68546;59.142;37.948;2023-05-24T14:28:52;24.48;45.99
79140;HTU21D;68546;59.142;37.948;2023-05-24T14:31:22;24.49;46.06
79140;HTU21D;68546;59.142;37.948;2023-05-24T14:33:48;24.50;46.11
79140;HTU21D;68546;59.142;37.948;2023-05-24T14:36:15;24.49;46.16
79140;HTU21D;68546;59.142;37.948;2023-05-24T14:38:41;24.49;46.25
79140;HTU21D;68546;59.142;37.948;2023-05-24T14:41:09;24.46;46.28
79140;HTU21D;68546;59.142;37.948;2023-05-24T14:43:36;24.42;46.31
79140;HTU21D;68546;59.142;37.948;2023-05-24T14:46:04;24.39;46.40
79140;HTU21D;68546;59.142;37.948;2023-05-24T14:48:30;24.33;46.60
79140;HTU21D;68546;59.142;37.948;2023-05-24T14:50:59;24.30;46.72
79140;HTU21D;68546;59.142;37.948;2023-05-24T14:53:25;24.27;46.81
79140;HTU21D;68546;59.142;37.948;2023-05-24T14:55:52;24.24;46.94
79140;HTU21D;68546;59.142;37.948;2023-05-24T14:58:19;24.19;47.06
79140;HTU21D;68546;59.142;37.948;2023-05-24T15:00:46;24.15;47.21
79140;HTU21D;68546;59.142;37.948;2023-05-24T15:03:12;24.11;47.35
79140;HTU21D;68546;59.142;37.948;2023-05-24T15:05:39;24.09;47.58
79140;HTU21D;68546;59.142;37.948;2023-05-24T15:08:09;24.06;47.79
79140;HTU21D;68546;59.142;37.948;2023-05-24T15:10:36;24.04;47.92
79140;HTU21D;68546;59.142;37.948;2023-05-24T15:13:04;24.02;48.02
79140;HTU21D;68546;59.142;37.948;2023-05-24T15:15:30;24.00;48.18
79140;HTU21D;68546;59.142;37.948;2023-05-24T15:17:57;23.99;48.13
79140;HTU21D;68546;59.142;37.948;2023-05-24T15:20:25;23.92;48.21
79140;HTU21D;68546;59.142;37.948;2023-05-24T15:22:51;23.87;48.30